Time;durP1;ratioP1;P1;durP2;ratioP2;P2;SDS_P1;SDS_P2;PMS_P1;PMS_P2;Temp;Humidity;BMP_temperature;BMP_pressure;BME280_temperature;BME280_humidity;BME280_pressure;Samples;Min_cycle;Max_cycle;Signal;HPM_P1;HPM_P2
2023/07/13 00:00:18;;;;;;;3.63;0.77;;;16.60;82.30;;;;;;5076422;28;20137;-72
2023/07/13 00:02:44;;;;;;;3.27;0.90;;;16.60;82.50;;;;;;5085521;28;20423;-72
2023/07/13 00:05:09;;;;;;;7.57;0.80;;;16.60;82.30;;;;;;5092448;28;20364;-72
2023/07/13 00:07:36;;;;;;;6.27;0.70;;;16.60;82.30;;;;;;5092321;28;20039;-72
2023/07/13 00:10:03;;;;;;;4.20;0.90;;;16.60;82.20;;;;;;5091768;28;20184;-72
2023/07/13 00:12:33;;;;;;;4.57;0.80;;;16.60;82.00;;;;;;5092738;28;20358;-72
2023/07/13 00:15:01;;;;;;;3.30;0.67;;;16.60;82.20;;;;;;5077490;28;20277;-72
2023/07/13 00:17:27;;;;;;;4.90;0.90;;;16.50;82.50;;;;;;5099648;28;20779;-72
2023/07/13 00:19:55;;;;;;;3.10;0.60;;;16.50;82.80;;;;;;5070356;28;20302;-72
2023/07/13 00:22:21;;;;;;;5.03;0.60;;;16.50;82.80;;;;;;5091626;28;20280;-72
2023/07/13 00:24:47;;;;;;;3.97;0.40;;;16.40;82.80;;;;;;5088162;28;20280;-72
2023/07/13 00:27:14;;;;;;;4.13;1.10;;;16.40;83.20;;;;;;5085175;28;20305;-72
2023/07/13 00:29:40;;;;;;;2.93;0.43;;;16.40;83.40;;;;;;5075550;28;20431;-72
2023/07/13 00:32:07;;;;;;;2.13;0.80;;;16.40;83.30;;;;;;5068763;28;20294;-72
2023/07/13 00:34:33;;;;;;;2.87;0.60;;;16.40;83.00;;;;;;5071790;28;20036;-72
2023/07/13 00:36:59;;;;;;;2.43;0.70;;;16.40;83.20;;;;;;5075260;28;20286;-72
2023/07/13 00:39:24;;;;;;;4.43;0.63;;;16.40;83.30;;;;;;5074235;28;20130;-72
2023/07/13 00:41:51;;;;;;;1.57;0.47;;;16.40;83.30;;;;;;5071354;28;20568;-72
2023/07/13 00:44:19;;;;;;;3.33;0.70;;;16.40;83.30;;;;;;5074883;28;20039;-72
2023/07/13 00:46:45;;;;;;;2.87;0.73;;;16.40;83.20;;;;;;5091852;28;20692;-72
2023/07/13 00:49:14;;;;;;;2.33;0.70;;;16.30;83.60;;;;;;5095746;28;20289;-72
2023/07/13 00:51:46;;;;;;;3.73;0.60;;;16.30;83.70;;;;;;5093583;28;20289;-72
2023/07/13 00:54:17;;;;;;;4.90;0.57;;;16.30;83.40;;;;;;5097453;28;20764;-70
2023/07/13 00:56:44;;;;;;;4.27;1.00;;;16.30;83.60;;;;;;5078038;28;20652;-70
2023/07/13 00:59:12;;;;;;;3.23;0.53;;;16.30;83.70;;;;;;5093947;28;21338;-70
2023/07/13 01:01:39;;;;;;;5.90;0.60;;;16.20;83.80;;;;;;5073808;28;20273;-70
2023/07/13 01:04:07;;;;;;;4.03;0.80;;;16.20;84.50;;;;;;5067706;27;20277;-70
2023/07/13 01:06:35;;;;;;;3.47;0.90;;;16.20;84.80;;;;;;5087253;28;20316;-70
2023/07/13 01:09:02;;;;;;;3.80;0.70;;;16.20;84.40;;;;;;5081877;28;20281;-70
2023/07/13 01:11:28;;;;;;;2.63;0.70;;;16.10;84.70;;;;;;5091041;28;20277;-70
2023/07/13 01:13:54;;;;;;;5.30;0.80;;;16.10;84.90;;;;;;5073361;28;20281;-70
2023/07/13 01:16:29;;;;;;;6.73;0.93;;;16.00;85.20;;;;;;5091172;28;20313;-70
2023/07/13 01:19:00;;;;;;;3.37;0.77;;;16.00;85.50;;;;;;5074183;28;20551;-70
2023/07/13 01:21:28;;;;;;;2.90;0.77;;;15.90;86.00;;;;;;5089601;28;20282;-71
2023/07/13 01:23:54;;;;;;;4.17;0.50;;;15.80;86.40;;;;;;5073384;28;20286;-71
2023/07/13 01:26:19;;;;;;;6.03;0.90;;;15.70;86.60;;;;;;5076252;28;20304;-71
2023/07/13 01:28:45;;;;;;;5.80;0.90;;;15.70;87.50;;;;;;5071805;28;20484;-72
2023/07/13 01:31:11;;;;;;;2.83;0.90;;;15.60;86.50;;;;;;5090862;28;20067;-72
2023/07/13 01:33:39;;;;;;;6.13;0.80;;;15.60;87.50;;;;;;5070474;28;20059;-72
2023/07/13 01:36:06;;;;;;;6.67;0.87;;;15.60;87.80;;;;;;5070387;28;20278;-72
2023/07/13 01:38:33;;;;;;;3.60;1.10;;;15.50;88.60;;;;;;5073984;28;20358;-72
2023/07/13 01:40:59;;;;;;;7.83;1.37;;;15.50;88.60;;;;;;5090701;28;20305;-72
2023/07/13 01:43:25;;;;;;;6.30;1.27;;;15.40;89.40;;;;;;5073793;28;20281;-70
2023/07/13 01:45:50;;;;;;;6.93;1.10;;;15.40;90.40;;;;;;5099386;28;20184;-70
2023/07/13 01:48:16;;;;;;;7.47;1.10;;;15.40;90.30;;;;;;5090739;28;20035;-70
2023/07/13 01:50:42;;;;;;;7.87;1.03;;;15.40;90.40;;;;;;5093760;28;20044;-70
2023/07/13 01:53:08;;;;;;;6.47;0.80;;;15.40;90.10;;;;;;5095575;28;20066;-70
2023/07/13 01:55:35;;;;;;;6.13;1.10;;;15.40;90.10;;;;;;5073564;28;20286;-70
2023/07/13 01:58:01;;;;;;;6.37;1.10;;;15.50;90.20;;;;;;5100704;28;20287;-70
2023/07/13 02:00:27;;;;;;;5.60;1.03;;;15.50;90.90;;;;;;5074950;28;20686;-70
2023/07/13 02:02:52;;;;;;;7.67;1.70;;;15.60;90.20;;;;;;5073907;28;20288;-70
2023/07/13 02:05:19;;;;;;;11.40;1.47;;;15.60;90.40;;;;;;5090094;28;20522;-70
2023/07/13 02:07:45;;;;;;;7.67;1.63;;;15.60;91.50;;;;;;5093912;28;20063;-70
2023/07/13 02:10:11;;;;;;;7.60;1.57;;;15.60;91.60;;;;;;5076880;28;20334;-71
2023/07/13 02:12:38;;;;;;;7.03;1.73;;;15.70;92.10;;;;;;5073636;28;20715;-71
2023/07/13 02:15:05;;;;;;;7.83;1.30;;;15.70;91.30;;;;;;5086698;28;20277;-71
2023/07/13 02:17:31;;;;;;;12.07;1.90;;;15.70;91.70;;;;;;5073540;28;20289;-71
2023/07/13 02:19:56;;;;;;;11.27;2.07;;;15.70;91.50;;;;;;5078194;28;20298;-71
2023/07/13 02:22:22;;;;;;;6.80;2.07;;;15.70;92.90;;;;;;5086348;28;20796;-71
2023/07/13 02:24:49;;;;;;;9.97;2.17;;;15.70;92.60;;;;;;5075278;28;20036;-71
2023/07/13 02:27:14;;;;;;;11.03;2.40;;;15.70;92.70;;;;;;5077022;28;20289;-71
2023/07/13 02:29:40;;;;;;;14.40;2.63;;;15.70;93.20;;;;;;5077494;28;20640;-72
2023/07/13 02:32:06;;;;;;;12.10;3.20;;;15.60;93.80;;;;;;5071238;28;20052;-72
2023/07/13 02:34:35;;;;;;;21.73;3.70;;;15.60;94.50;;;;;;5079434;28;20092;-72
2023/07/13 02:37:01;;;;;;;11.87;2.40;;;15.60;94.30;;;;;;5079130;28;20286;-72
2023/07/13 02:39:26;;;;;;;17.33;3.20;;;15.60;93.60;;;;;;5083421;28;20036;-72
2023/07/13 02:41:52;;;;;;;13.57;3.17;;;15.50;93.70;;;;;;5094094;28;20066;-71
2023/07/13 02:44:18;;;;;;;14.87;3.10;;;15.60;93.20;;;;;;5077150;28;20134;-72
2023/07/13 02:46:44;;;;;;;11.77;3.00;;;15.60;94.70;;;;;;5087193;28;20404;-72
2023/07/13 02:49:10;;;;;;;12.07;3.20;;;15.50;94.90;;;;;;5077336;28;20047;-72
2023/07/13 02:51:36;;;;;;;19.33;3.53;;;15.50;94.70;;;;;;5087443;28;20273;-72
2023/07/13 02:54:03;;;;;;;14.70;3.70;;;15.50;97.00;;;;;;5093840;28;20047;-72
2023/07/13 02:56:31;;;;;;;16.07;3.30;;;15.60;96.60;;;;;;5085924;28;20036;-72
2023/07/13 02:58:57;;;;;;;13.17;3.03;;;15.60;96.90;;;;;;5104572;28;20353;-72
2023/07/13 03:01:26;;;;;;;13.30;2.60;;;15.60;96.30;;;;;;5093548;28;20339;-72
2023/07/13 03:03:53;;;;;;;14.00;3.73;;;15.60;96.70;;;;;;5094292;28;20902;-72
2023/07/13 03:06:19;;;;;;;11.93;3.20;;;15.60;97.20;;;;;;5077711;28;21127;-72
2023/07/13 03:08:45;;;;;;;13.37;2.90;;;15.50;97.20;;;;;;5079797;28;20811;-72
2023/07/13 03:11:17;;;;;;;16.97;3.90;;;15.50;98.00;;;;;;5093404;28;20282;-72
2023/07/13 03:13:43;;;;;;;14.60;3.23;;;15.40;98.00;;;;;;5094308;28;20285;-72
2023/07/13 03:16:10;;;;;;;14.53;3.93;;;15.40;98.00;;;;;;5093362;28;20285;-72
2023/07/13 03:18:36;;;;;;;20.73;3.07;;;15.40;97.80;;;;;;5076392;28;20621;-72
2023/07/13 03:21:03;;;;;;;13.07;3.10;;;15.30;97.80;;;;;;5085180;28;20355;-72
2023/07/13 03:23:29;;;;;;;13.37;2.90;;;15.30;98.10;;;;;;5087364;28;20356;-72
2023/07/13 03:26:21;;;;;;;14.40;2.67;;;15.30;98.00;;;;;;5102452;28;20435;-72
2023/07/13 03:28:47;;;;;;;11.50;2.57;;;15.20;97.60;;;;;;5094637;28;20048;-72
2023/07/13 03:31:16;;;;;;;17.30;3.13;;;15.20;98.20;;;;;;5078150;28;20309;-72
2023/07/13 03:33:42;;;;;;;11.20;2.80;;;15.20;98.60;;;;;;5081121;28;20334;-72
2023/07/13 03:36:13;;;;;;;10.07;2.70;;;15.10;98.30;;;;;;5091491;28;20586;-72
2023/07/13 03:38:39;;;;;;;9.63;2.83;;;15.10;98.30;;;;;;5086463;28;20769;-72
2023/07/13 03:41:05;;;;;;;12.53;2.83;;;15.10;98.50;;;;;;5076119;28;20294;-72
2023/07/13 03:43:31;;;;;;;9.73;2.53;;;15.00;98.30;;;;;;5082355;28;20777;-72
2023/07/13 03:45:56;;;;;;;10.37;3.13;;;15.00;98.00;;;;;;5075971;28;20070;-72
2023/07/13 03:48:22;;;;;;;15.73;3.43;;;14.90;98.40;;;;;;5092425;28;20451;-72
2023/07/13 03:50:49;;;;;;;10.60;2.33;;;14.90;99.10;;;;;;5091923;28;20035;-72
2023/07/13 03:53:15;;;;;;;9.70;2.73;;;14.90;99.20;;;;;;5087511;28;20403;-72
2023/07/13 03:55:41;;;;;;;10.07;3.10;;;14.90;99.10;;;;;;5092580;28;20289;-72
2023/07/13 03:58:30;;;;;;;9.17;2.63;;;14.90;99.30;;;;;;5075822;28;20277;-72
2023/07/13 04:00:57;;;;;;;13.03;2.80;;;14.90;99.00;;;;;;5070706;28;20036;-72
2023/07/13 04:03:23;;;;;;;8.80;2.93;;;14.90;99.20;;;;;;5092719;28;20372;-72
2023/07/13 04:05:49;;;;;;;10.97;2.73;;;15.00;99.20;;;;;;5092458;28;20295;-72
2023/07/13 04:08:16;;;;;;;9.00;2.50;;;15.00;99.60;;;;;;5092399;28;20274;-72
2023/07/13 04:10:43;;;;;;;13.87;3.17;;;15.00;99.90;;;;;;5076188;28;20507;-72
2023/07/13 04:13:09;;;;;;;10.77;2.90;;;15.10;99.80;;;;;;5093652;28;20305;-72
2023/07/13 04:15:34;;;;;;;11.27;2.77;;;15.10;99.30;;;;;;5092296;28;20309;-72
2023/07/13 04:18:00;;;;;;;12.37;2.47;;;15.10;99.30;;;;;;5068402;28;20066;-72
2023/07/13 04:20:26;;;;;;;12.60;2.57;;;15.10;99.50;;;;;;5087647;27;20082;-72
2023/07/13 04:22:53;;;;;;;9.67;2.60;;;15.20;99.70;;;;;;5092088;28;20442;-72
2023/07/13 04:25:20;;;;;;;9.97;2.83;;;15.20;99.80;;;;;;5090407;28;20039;-72
2023/07/13 04:27:46;;;;;;;9.33;2.50;;;15.30;99.90;;;;;;5087179;28;20746;-72
2023/07/13 04:30:11;;;;;;;11.47;2.77;;;15.30;99.90;;;;;;5081407;28;20588;-72
2023/07/13 04:32:37;;;;;;;7.73;2.00;;;15.30;99.70;;;;;;5086358;28;20327;-71
2023/07/13 04:35:04;;;;;;;12.10;2.53;;;15.40;99.50;;;;;;5071316;28;20054;-70
2023/07/13 04:37:30;;;;;;;7.93;2.57;;;15.50;99.30;;;;;;5074812;28;20042;-70
2023/07/13 04:39:55;;;;;;;9.17;2.43;;;15.50;99.30;;;;;;5072426;28;20305;-70
2023/07/13 04:42:22;;;;;;;12.53;2.83;;;15.60;99.20;;;;;;5088594;28;20043;-70
2023/07/13 04:44:51;;;;;;;11.60;2.63;;;15.70;98.80;;;;;;5085030;28;20032;-72
2023/07/13 04:47:17;;;;;;;10.43;2.80;;;15.80;99.00;;;;;;5071394;28;20547;-72
2023/07/13 04:49:44;;;;;;;12.80;2.70;;;16.20;99.00;;;;;;5070557;28;20750;-72
2023/07/13 04:52:10;;;;;;;10.03;2.60;;;16.50;96.90;;;;;;5073600;28;20285;-72
2023/07/13 04:54:37;;;;;;;8.87;2.47;;;16.60;95.40;;;;;;5089200;28;20707;-72
2023/07/13 04:57:06;;;;;;;9.33;2.40;;;16.70;95.00;;;;;;5086099;28;20281;-72
2023/07/13 04:59:32;;;;;;;9.77;2.47;;;16.80;94.80;;;;;;5070731;28;20321;-71
2023/07/13 05:01:58;;;;;;;11.40;2.57;;;17.10;94.00;;;;;;5084504;28;20340;-70
2023/07/13 05:04:24;;;;;;;9.00;2.63;;;17.40;92.30;;;;;;5073117;27;20668;-70
2023/07/13 05:06:49;;;;;;;11.73;2.60;;;17.60;91.80;;;;;;5077839;28;20031;-70
2023/07/13 05:09:15;;;;;;;10.13;2.60;;;18.10;90.60;;;;;;5071095;28;20035;-70
2023/07/13 05:11:41;;;;;;;9.50;2.40;;;18.70;88.80;;;;;;5072137;28;20035;-70
2023/07/13 05:14:06;;;;;;;8.13;2.20;;;19.40;87.30;;;;;;5071243;28;20039;-70
2023/07/13 05:16:32;;;;;;;11.00;2.67;;;20.10;85.30;;;;;;5081123;28;20071;-70
2023/07/13 05:18:58;;;;;;;13.93;2.60;;;20.60;82.60;;;;;;5067650;28;20035;-70
2023/07/13 05:21:24;;;;;;;13.10;2.83;;;21.00;79.40;;;;;;5086768;28;20550;-70
2023/07/13 05:23:50;;;;;;;13.47;2.87;;;21.40;78.30;;;;;;5090698;28;20396;-70
2023/07/13 05:26:16;;;;;;;10.27;2.77;;;21.50;75.00;;;;;;5091323;28;20039;-70
2023/07/13 05:28:42;;;;;;;13.70;2.70;;;21.50;74.90;;;;;;5074409;28;20038;-70
2023/07/13 05:31:09;;;;;;;9.30;2.50;;;21.50;74.40;;;;;;5085337;28;20503;-70
2023/07/13 05:33:35;;;;;;;10.23;2.40;;;21.20;74.80;;;;;;5091313;28;20739;-70
2023/07/13 05:36:00;;;;;;;8.13;2.20;;;20.70;75.80;;;;;;5093069;28;20123;-70
2023/07/13 05:38:27;;;;;;;12.10;2.20;;;20.40;77.70;;;;;;5099547;28;20074;-70
2023/07/13 05:40:55;;;;;;;11.13;2.33;;;20.20;79.80;;;;;;5092240;28;20074;-70
2023/07/13 05:43:22;;;;;;;9.40;2.10;;;20.30;79.90;;;;;;5091062;28;20035;-70
2023/07/13 05:45:48;;;;;;;11.13;2.20;;;20.70;78.20;;;;;;5087568;28;20032;-70
2023/07/13 05:48:14;;;;;;;9.13;2.00;;;21.30;75.70;;;;;;5073909;28;20062;-70
2023/07/13 05:50:40;;;;;;;11.77;2.20;;;21.70;74.10;;;;;;5078613;28;20488;-70
2023/07/13 05:53:06;;;;;;;9.97;2.13;;;21.90;72.40;;;;;;5074198;28;20039;-70
2023/07/13 05:55:32;;;;;;;11.90;2.23;;;21.90;70.90;;;;;;5074157;28;20042;-70
2023/07/13 05:57:58;;;;;;;11.13;2.40;;;21.60;72.50;;;;;;5070879;28;20062;-70
2023/07/13 06:00:25;;;;;;;8.70;1.87;;;21.80;72.90;;;;;;5103439;28;20051;-71
2023/07/13 06:02:50;;;;;;;10.73;2.40;;;21.70;72.50;;;;;;5094742;28;20185;-71
2023/07/13 06:05:16;;;;;;;11.43;2.03;;;21.40;72.60;;;;;;5078368;28;20130;-71
2023/07/13 06:07:42;;;;;;;8.87;1.80;;;20.80;73.90;;;;;;5094837;28;20036;-71
2023/07/13 06:10:08;;;;;;;10.87;2.73;;;20.20;76.00;;;;;;5108619;28;20046;-71
2023/07/13 06:12:34;;;;;;;8.13;2.33;;;19.60;78.70;;;;;;5083630;28;20050;-71
2023/07/13 06:15:00;;;;;;;8.83;2.63;;;19.10;80.40;;;;;;5094434;28;20162;-71
2023/07/13 06:17:25;;;;;;;8.03;2.07;;;18.80;82.00;;;;;;5084289;28;20047;-71
2023/07/13 06:19:51;;;;;;;12.10;2.20;;;18.60;83.30;;;;;;5077480;28;20035;-71
2023/07/13 06:22:17;;;;;;;9.70;2.20;;;18.30;84.80;;;;;;5094682;28;20027;-71
2023/07/13 06:24:43;;;;;;;7.17;2.10;;;18.10;85.70;;;;;;5086484;28;20340;-71
2023/07/13 06:27:08;;;;;;;10.67;2.60;;;17.90;86.90;;;;;;5091853;28;20602;-71
2023/07/13 06:29:34;;;;;;;13.03;2.67;;;17.70;87.40;;;;;;5087688;28;20038;-71
2023/07/13 06:32:00;;;;;;;12.07;2.30;;;17.50;87.90;;;;;;5103924;28;20055;-71
2023/07/13 06:34:25;;;;;;;8.70;2.10;;;17.50;89.20;;;;;;5090869;28;20123;-71
2023/07/13 06:36:51;;;;;;;8.03;2.20;;;18.00;89.30;;;;;;5077378;28;20050;-71
2023/07/13 06:39:17;;;;;;;10.03;2.17;;;18.50;86.10;;;;;;5077891;28;20032;-71
2023/07/13 06:41:43;;;;;;;6.50;1.90;;;18.90;85.80;;;;;;5085771;28;20040;-71
2023/07/13 06:44:08;;;;;;;7.23;1.77;;;19.60;83.80;;;;;;5076476;28;20054;-71
2023/07/13 06:46:34;;;;;;;9.20;2.00;;;20.00;80.30;;;;;;5077721;28;20096;-71
2023/07/13 06:49:00;;;;;;;8.07;1.83;;;20.00;77.00;;;;;;5091385;28;20114;-71
2023/07/13 06:51:25;;;;;;;7.70;1.70;;;19.70;78.10;;;;;;5088463;28;20059;-71
2023/07/13 06:53:51;;;;;;;7.47;1.83;;;19.30;78.70;;;;;;5083418;28;20419;-71
2023/07/13 06:56:17;;;;;;;8.13;1.63;;;18.90;80.70;;;;;;5102081;28;20039;-71
2023/07/13 06:58:43;;;;;;;8.57;1.80;;;18.70;82.00;;;;;;5077043;28;20046;-71
2023/07/13 07:01:09;;;;;;;7.87;1.60;;;18.60;81.90;;;;;;5076790;28;20134;-71
2023/07/13 07:03:35;;;;;;;8.60;1.73;;;18.50;81.40;;;;;;5104469;28;20096;-71
2023/07/13 07:06:06;;;;;;;6.93;1.73;;;18.50;82.30;;;;;;5091157;28;20282;-71
2023/07/13 07:08:31;;;;;;;9.30;1.90;;;18.60;82.80;;;;;;5093741;28;20085;-71
2023/07/13 07:10:57;;;;;;;8.40;1.97;;;18.70;82.50;;;;;;5103932;28;20691;-71
2023/07/13 07:13:23;;;;;;;8.20;1.60;;;18.80;80.80;;;;;;5076567;28;20092;-71
2023/07/13 07:15:50;;;;;;;6.20;1.40;;;18.90;80.40;;;;;;5095300;28;20503;-71
2023/07/13 07:18:15;;;;;;;6.63;1.40;;;18.80;78.70;;;;;;5093640;28;20039;-71
2023/07/13 07:20:41;;;;;;;7.00;1.20;;;18.80;76.70;;;;;;5091921;28;20354;-71
2023/07/13 07:23:07;;;;;;;10.17;2.07;;;18.80;77.80;;;;;;5095986;28;20118;-71
2023/07/13 07:25:36;;;;;;;7.73;1.20;;;18.90;77.60;;;;;;5104867;28;20040;-70
2023/07/13 07:28:03;;;;;;;6.53;1.70;;;19.00;77.80;;;;;;5090258;28;20043;-71
2023/07/13 07:30:28;;;;;;;4.87;1.67;;;19.20;76.70;;;;;;5107063;28;20317;-70
2023/07/13 07:32:54;;;;;;;5.63;1.43;;;19.30;77.60;;;;;;5087544;28;20820;-70
2023/07/13 07:35:20;;;;;;;6.80;1.87;;;19.40;77.10;;;;;;5077720;28;20128;-70
2023/07/13 07:37:46;;;;;;;8.53;1.70;;;19.40;76.90;;;;;;5089784;28;20044;-70
2023/07/13 07:40:12;;;;;;;9.20;1.87;;;19.40;76.10;;;;;;5087042;28;20044;-70
2023/07/13 07:42:37;;;;;;;4.70;1.40;;;19.40;75.00;;;;;;5070554;28;20289;-70
2023/07/13 07:45:03;;;;;;;5.17;1.30;;;19.50;74.20;;;;;;5071165;28;20081;-70
2023/07/13 07:47:29;;;;;;;4.47;1.20;;;19.60;73.20;;;;;;5071049;28;20032;-70
2023/07/13 07:49:55;;;;;;;8.93;1.60;;;19.80;73.60;;;;;;5070573;28;20162;-70
2023/07/13 07:52:20;;;;;;;4.97;1.27;;;20.00;72.50;;;;;;5070765;28;20104;-71
2023/07/13 07:54:46;;;;;;;6.27;1.47;;;20.20;73.50;;;;;;5068479;28;20093;-71
2023/07/13 07:57:12;;;;;;;9.83;1.80;;;20.40;72.50;;;;;;5087504;28;20100;-71
2023/07/13 07:59:38;;;;;;;3.93;1.43;;;20.60;69.70;;;;;;5076141;28;20047;-71
2023/07/13 08:02:04;;;;;;;4.80;1.30;;;20.70;69.30;;;;;;5087486;28;20035;-71
2023/07/13 08:04:30;;;;;;;5.87;1.80;;;20.60;67.60;;;;;;5087901;28;20610;-71
2023/07/13 08:06:58;;;;;;;4.63;1.37;;;20.40;67.50;;;;;;5087531;28;20040;-71
2023/07/13 08:09:24;;;;;;;6.43;1.40;;;20.20;68.70;;;;;;5087200;28;20044;-71
2023/07/13 08:11:51;;;;;;;5.40;1.70;;;19.90;69.30;;;;;;5087288;28;20035;-71
2023/07/13 08:14:16;;;;;;;6.77;1.67;;;19.70;71.00;;;;;;5087521;28;20069;-71
2023/07/13 08:16:42;;;;;;;8.50;1.80;;;19.70;71.90;;;;;;5087292;28;20115;-71
2023/07/13 08:19:08;;;;;;;7.43;1.97;;;19.80;72.60;;;;;;5081820;28;20040;-72
2023/07/13 08:21:34;;;;;;;6.33;2.10;;;20.00;72.30;;;;;;5080529;28;20549;-71
2023/07/13 08:23:59;;;;;;;7.87;1.80;;;20.10;72.60;;;;;;5087554;28;20400;-71
2023/07/13 08:26:25;;;;;;;5.13;1.23;;;20.00;72.40;;;;;;5069608;28;20036;-71
2023/07/13 08:28:51;;;;;;;9.77;2.03;;;19.80;70.70;;;;;;5060343;28;20491;-71
2023/07/13 08:31:17;;;;;;;8.07;1.67;;;19.80;72.20;;;;;;5072608;28;20068;-71
2023/07/13 08:33:42;;;;;;;5.80;1.67;;;19.90;72.30;;;;;;5095599;28;20039;-71
2023/07/13 08:36:08;;;;;;;3.43;1.23;;;20.10;71.10;;;;;;5089975;28;20047;-71
2023/07/13 08:38:34;;;;;;;3.93;1.33;;;20.30;71.00;;;;;;5073540;28;20070;-71
2023/07/13 08:41:09;;;;;;;5.33;1.20;;;20.50;69.20;;;;;;5071684;28;20039;-71
2023/07/13 08:43:37;;;;;;;2.33;0.90;;;20.80;67.00;;;;;;5089712;28;20503;-71
2023/07/13 08:46:25;;;;;;;3.67;0.80;;;20.80;63.40;;;;;;5074641;28;20099;-71
2023/07/13 08:48:53;;;;;;;4.17;0.60;;;20.90;64.90;;;;;;5067005;28;20605;-71
2023/07/13 08:51:31;;;;;;;4.93;0.97;;;21.10;61.90;;;;;;5063176;28;20036;-71
2023/07/13 08:54:02;;;;;;;4.73;0.80;;;21.00;60.60;;;;;;5079778;28;20093;-71
2023/07/13 08:56:30;;;;;;;3.77;0.77;;;20.90;61.40;;;;;;5079000;28;20401;-71
2023/07/13 08:59:00;;;;;;;6.27;1.30;;;20.80;63.60;;;;;;5078151;28;20405;-71
2023/07/13 09:01:31;;;;;;;2.43;0.73;;;20.80;64.70;;;;;;5064994;28;20138;-71
2023/07/13 09:04:33;;;;;;;5.50;1.70;;;20.80;63.10;;;;;;5073812;28;20507;-71
2023/07/13 09:07:32;;;;;;;4.57;0.80;;;20.90;61.80;;;;;;5088601;28;20047;-71
2023/07/13 09:09:58;;;;;;;2.23;0.60;;;21.00;61.50;;;;;;5077338;28;20044;-71
2023/07/13 09:12:29;;;;;;;4.23;0.80;;;21.20;62.20;;;;;;5080658;28;20399;-71
2023/07/13 09:14:57;;;;;;;2.90;0.77;;;21.50;61.70;;;;;;5083583;28;20040;-71
2023/07/13 09:17:32;;;;;;;2.40;0.70;;;21.70;59.50;;;;;;5076680;28;20048;-71
2023/07/13 09:20:16;;;;;;;;;;;21.60;60.50;;;;;;5069983;28;20777;-71
2023/07/13 09:22:42;;;;;;;4.43;0.90;;;21.70;61.10;;;;;;5080255;28;19915;-71
2023/07/13 09:25:29;;;;;;;4.33;0.70;;;22.00;61.10;;;;;;5087503;28;20036;-71
2023/07/13 09:28:00;;;;;;;5.80;1.00;;;22.20;60.20;;;;;;5072304;28;20104;-71
2023/07/13 09:30:46;;;;;;;8.63;0.60;;;22.20;58.70;;;;;;5073826;28;20071;-71
2023/07/13 09:33:12;;;;;;;4.57;0.60;;;21.90;58.50;;;;;;5084843;28;20124;-71
2023/07/13 09:35:38;;;;;;;3.73;0.53;;;21.70;60.20;;;;;;5075716;28;20035;-71
2023/07/13 09:38:16;;;;;;;4.73;0.53;;;21.50;59.00;;;;;;5073905;28;20096;-71
2023/07/13 09:41:23;;;;;;;3.13;0.60;;;21.30;59.10;;;;;;5071207;28;20035;-71
2023/07/13 09:44:09;;;;;;;2.90;0.73;;;21.40;60.10;;;;;;5070170;28;20040;-71
2023/07/13 09:46:35;;;;;;;2.40;0.70;;;21.40;58.20;;;;;;5062024;28;20492;-71
2023/07/13 09:49:01;;;;;;;3.13;0.50;;;21.50;59.20;;;;;;5094165;28;20100;-71
2023/07/13 09:51:26;;;;;;;2.30;0.63;;;21.50;59.60;;;;;;5076543;28;20028;-71
2023/07/13 09:53:52;;;;;;;3.63;0.70;;;21.40;59.90;;;;;;5066382;28;20076;-71
2023/07/13 09:56:23;;;;;;;2.17;0.60;;;21.60;60.60;;;;;;5079035;28;20115;-71
2023/07/13 09:58:50;;;;;;;2.87;0.93;;;21.70;59.00;;;;;;5086515;28;20176;-71
2023/07/13 10:01:30;;;;;;;4.47;0.77;;;21.80;57.80;;;;;;5071228;28;20036;-71
2023/07/13 10:03:56;;;;;;;3.43;1.23;;;21.90;57.30;;;;;;5074039;28;20115;-71
2023/07/13 10:06:22;;;;;;;3.30;0.80;;;21.90;58.10;;;;;;5086874;28;20174;-71
2023/07/13 10:08:51;;;;;;;10.87;1.23;;;21.80;57.60;;;;;;5094403;28;20032;-71
2023/07/13 10:11:24;;;;;;;3.90;1.13;;;21.80;58.50;;;;;;5075188;28;20040;-71
2023/07/13 10:13:59;;;;;;;7.20;1.30;;;21.80;59.20;;;;;;5054635;28;20048;-71
2023/07/13 10:16:32;;;;;;;5.20;1.10;;;22.10;58.90;;;;;;5071926;28;20555;-71
2023/07/13 10:19:20;;;;;;;3.33;0.80;;;22.30;58.90;;;;;;5086017;28;20092;-71
2023/07/13 10:21:59;;;;;;;7.10;1.37;;;22.60;57.40;;;;;;5088578;28;20047;-71
2023/07/13 10:24:29;;;;;;;8.20;1.13;;;22.80;57.60;;;;;;5071354;28;20047;-72
2023/07/13 10:27:19;;;;;;;6.03;1.10;;;22.80;57.20;;;;;;5079452;28;20040;-71
2023/07/13 10:30:01;;;;;;;5.67;1.50;;;22.70;54.40;;;;;;5067242;28;20051;-71
2023/07/13 10:32:27;;;;;;;3.90;1.00;;;22.70;57.30;;;;;;5087682;28;20056;-71
2023/07/13 10:34:56;;;;;;;4.30;0.87;;;22.80;57.30;;;;;;5072877;28;20044;-71
2023/07/13 10:37:36;;;;;;;4.67;0.90;;;22.60;56.60;;;;;;5089152;28;20165;-71
2023/07/13 10:40:05;;;;;;;3.23;1.10;;;22.50;54.60;;;;;;5072291;28;20044;-71
2023/07/13 10:42:38;;;;;;;3.33;0.90;;;22.20;55.90;;;;;;5074384;28;20365;-71
2023/07/13 10:45:23;;;;;;;5.20;1.43;;;22.10;56.20;;;;;;5074205;28;20444;-71
2023/07/13 10:47:53;;;;;;;4.65;0.90;;;22.10;55.80;;;;;;5077408;28;20399;-71
2023/07/13 10:50:27;;;;;;;3.07;0.80;;;22.00;55.20;;;;;;5078494;28;20047;-71
2023/07/13 10:52:57;;;;;;;3.85;1.23;;;22.00;55.10;;;;;;5077362;28;20142;-71
2023/07/13 10:55:59;;;;;;;5.40;0.93;;;22.10;56.00;;;;;;5084685;28;20138;-71
2023/07/13 10:58:40;;;;;;;4.57;1.03;;;22.50;54.60;;;;;;5119818;27;20550;-71
2023/07/13 11:01:06;;;;;;;5.33;1.17;;;22.70;55.30;;;;;;5061928;28;20380;-71
2023/07/13 11:04:00;;;;;;;4.40;0.93;;;22.80;54.60;;;;;;5099332;28;20050;-71
2023/07/13 11:06:36;;;;;;;5.33;1.20;;;22.50;55.30;;;;;;5105350;27;20040;-71
2023/07/13 11:09:32;;;;;;;3.77;0.70;;;22.30;55.00;;;;;;5078889;28;20407;-71
2023/07/13 11:12:09;;;;;;;6.80;1.73;;;22.20;54.60;;;;;;5073907;28;20456;-71
2023/07/13 11:15:02;;;;;;;2.90;0.97;;;22.20;56.30;;;;;;5075558;28;20035;-71
2023/07/13 11:17:49;;;;;;;4.80;1.07;;;22.10;56.60;;;;;;5068216;28;20051;-70
2023/07/13 11:20:14;;;;;;;6.00;1.30;;;22.20;56.40;;;;;;5085969;28;20048;-70
2023/07/13 11:22:47;;;;;;;4.37;0.90;;;22.30;55.90;;;;;;5076585;28;20246;-71
2023/07/13 11:25:30;;;;;;;6.20;1.17;;;22.10;54.60;;;;;;5093803;28;20259;-71
2023/07/13 11:28:11;;;;;;;3.87;0.97;;;22.00;55.50;;;;;;5072562;28;20065;-71
2023/07/13 11:30:48;;;;;;;3.83;0.67;;;22.20;55.90;;;;;;5079252;28;20118;-70
2023/07/13 11:33:42;;;;;;;2.50;0.90;;;22.40;56.30;;;;;;5086008;28;20147;-70
2023/07/13 11:36:19;;;;;;;5.40;1.07;;;22.50;54.20;;;;;;5088797;28;20075;-70
2023/07/13 11:39:09;;;;;;;3.70;0.70;;;22.40;53.10;;;;;;5076982;28;20490;-71
2023/07/13 11:41:42;;;;;;;4.67;0.73;;;22.40;54.30;;;;;;5095228;28;20038;-71
2023/07/13 11:44:16;;;;;;;2.40;0.60;;;22.50;53.70;;;;;;5092918;28;20042;-71
2023/07/13 11:46:51;;;;;;;5.43;1.10;;;22.50;54.60;;;;;;5076410;28;20086;-71
2023/07/13 11:49:17;;;;;;;;;;;22.80;55.80;;;;;;5084610;28;20093;-70
2023/07/13 11:51:44;;;;;;;3.87;1.10;;;23.10;53.80;;;;;;5093016;28;19916;-71
2023/07/13 11:54:43;;;;;;;4.87;1.10;;;23.20;53.70;;;;;;5081321;28;20051;-71
2023/07/13 11:57:25;;;;;;;3.77;1.07;;;23.40;53.00;;;;;;5086830;28;20047;-71
2023/07/13 11:59:53;;;;;;;3.07;0.70;;;23.40;53.10;;;;;;5092753;28;20043;-71
2023/07/13 12:02:32;;;;;;;6.17;1.00;;;23.40;52.80;;;;;;5076200;28;20042;-71
2023/07/13 12:05:00;;;;;;;3.60;0.60;;;23.40;52.30;;;;;;5074472;28;20561;-71
2023/07/13 12:07:29;;;;;;;4.70;1.07;;;23.40;50.20;;;;;;5097466;28;20467;-71
2023/07/13 12:10:01;;;;;;;6.23;1.10;;;23.20;51.40;;;;;;5076020;28;20079;-71
2023/07/13 12:12:29;;;;;;;6.70;1.57;;;23.20;51.90;;;;;;5093445;28;20062;-71
2023/07/13 12:14:55;;;;;;;5.90;1.27;;;22.90;52.80;;;;;;5082820;28;20495;-71
2023/07/13 12:17:23;;;;;;;6.40;1.00;;;22.70;53.30;;;;;;5092506;28;20048;-71
2023/07/13 12:19:51;;;;;;;4.87;0.90;;;22.60;53.60;;;;;;5069071;28;20115;-71
2023/07/13 12:22:19;;;;;;;3.60;0.90;;;22.50;53.50;;;;;;5075366;28;20028;-71
2023/07/13 12:24:46;;;;;;;7.03;1.03;;;22.50;54.30;;;;;;5092061;28;20031;-71
2023/07/13 12:27:23;;;;;;;4.97;1.00;;;22.60;55.40;;;;;;5069355;28;20122;-71
2023/07/13 12:30:01;;;;;;;4.63;1.40;;;22.80;55.30;;;;;;5080089;28;20046;-71
2023/07/13 12:32:29;;;;;;;5.17;0.97;;;22.90;55.60;;;;;;5076909;28;20055;-71
2023/07/13 12:35:13;;;;;;;3.87;1.00;;;22.70;54.50;;;;;;5098880;28;20051;-71
2023/07/13 12:37:46;;;;;;;4.03;1.10;;;22.60;55.50;;;;;;5093547;28;20563;-71
2023/07/13 12:40:22;;;;;;;6.03;1.40;;;22.70;55.80;;;;;;5075317;28;20205;-71
2023/07/13 12:42:51;;;;;;;4.60;1.10;;;22.80;57.10;;;;;;5092264;28;20042;-71
2023/07/13 12:45:27;;;;;;;4.63;1.27;;;22.90;56.50;;;;;;5092225;28;20483;-71
2023/07/13 12:48:09;;;;;;;6.00;1.57;;;23.20;56.60;;;;;;5092114;28;20453;-71
2023/07/13 12:50:40;;;;;;;4.53;1.33;;;23.30;55.90;;;;;;5075150;28;20426;-70
2023/07/13 12:53:27;;;;;;;3.97;1.13;;;23.40;56.60;;;;;;5068003;28;20044;-71
2023/07/13 12:55:59;;;;;;;5.53;1.60;;;23.20;54.20;;;;;;5091882;28;20498;-71